sensor_id;sensor_type;location;lat;lon;timestamp;P1;durP1;ratioP1;P2;durP2;ratioP2
4939;SDS011;2485;49.326;7.214;2022-07-29T00:02:11;4.00;;;2.53;;
4939;SDS011;2485;49.326;7.214;2022-07-29T00:04:38;7.03;;;2.60;;
4939;SDS011;2485;49.326;7.214;2022-07-29T00:07:06;5.47;;;2.60;;
4939;SDS011;2485;49.326;7.214;2022-07-29T00:09:32;3.70;;;2.47;;
4939;SDS011;2485;49.326;7.214;2022-07-29T00:11:59;5.00;;;2.80;;
4939;SDS011;2485;49.326;7.214;2022-07-29T00:14:28;2.97;;;2.67;;
4939;SDS011;2485;49.326;7.214;2022-07-29T00:16:54;2.70;;;2.40;;
4939;SDS011;2485;49.326;7.214;2022-07-29T00:19:21;5.63;;;2.80;;
4939;SDS011;2485;49.326;7.214;2022-07-29T00:21:47;7.07;;;2.97;;
4939;SDS011;2485;49.326;7.214;2022-07-29T00:24:13;5.70;;;2.50;;
4939;SDS011;2485;49.326;7.214;2022-07-29T00:26:40;5.60;;;2.60;;
4939;SDS011;2485;49.326;7.214;2022-07-29T00:29:06;4.37;;;2.60;;
4939;SDS011;2485;49.326;7.214;2022-07-29T00:31:34;4.90;;;2.77;;
4939;SDS011;2485;49.326;7.214;2022-07-29T00:34:01;4.60;;;3.20;;
4939;SDS011;2485;49.326;7.214;2022-07-29T00:36:27;4.93;;;3.10;;
4939;SDS011;2485;49.326;7.214;2022-07-29T00:38:53;4.33;;;3.10;;
4939;SDS011;2485;49.326;7.214;2022-07-29T00:41:19;3.70;;;3.00;;
4939;SDS011;2485;49.326;7.214;2022-07-29T00:43:46;3.80;;;2.80;;
4939;SDS011;2485;49.326;7.214;2022-07-29T00:46:12;3.00;;;2.70;;
4939;SDS011;2485;49.326;7.214;2022-07-29T00:48:40;5.00;;;3.53;;
4939;SDS011;2485;49.326;7.214;2022-07-29T00:51:06;3.90;;;3.27;;
4939;SDS011;2485;49.326;7.214;2022-07-29T00:53:35;4.20;;;3.03;;
4939;SDS011;2485;49.326;7.214;2022-07-29T00:56:01;5.63;;;3.80;;
4939;SDS011;2485;49.326;7.214;2022-07-29T00:58:28;5.80;;;3.70;;
4939;SDS011;2485;49.326;7.214;2022-07-29T01:00:54;5.60;;;3.40;;
4939;SDS011;2485;49.326;7.214;2022-07-29T01:03:21;5.47;;;3.53;;
4939;SDS011;2485;49.326;7.214;2022-07-29T01:05:48;4.80;;;3.10;;
4939;SDS011;2485;49.326;7.214;2022-07-29T01:08:15;5.60;;;3.90;;
4939;SDS011;2485;49.326;7.214;2022-07-29T01:10:41;4.20;;;3.10;;
4939;SDS011;2485;49.326;7.214;2022-07-29T01:13:09;7.27;;;3.33;;
4939;SDS011;2485;49.326;7.214;2022-07-29T01:15:38;6.50;;;3.83;;
4939;SDS011;2485;49.326;7.214;2022-07-29T01:18:07;3.70;;;3.17;;
4939;SDS011;2485;49.326;7.214;2022-07-29T01:20:42;5.20;;;3.50;;
4939;SDS011;2485;49.326;7.214;2022-07-29T01:23:25;3.87;;;3.47;;
4939;SDS011;2485;49.326;7.214;2022-07-29T01:25:57;4.30;;;3.17;;
4939;SDS011;2485;49.326;7.214;2022-07-29T01:28:49;7.33;;;4.00;;
4939;SDS011;2485;49.326;7.214;2022-07-29T01:31:19;5.30;;;3.60;;
4939;SDS011;2485;49.326;7.214;2022-07-29T01:33:48;3.80;;;3.40;;
4939;SDS011;2485;49.326;7.214;2022-07-29T01:36:17;6.73;;;3.00;;
4939;SDS011;2485;49.326;7.214;2022-07-29T01:38:46;5.60;;;3.73;;
4939;SDS011;2485;49.326;7.214;2022-07-29T01:41:16;5.43;;;4.20;;
4939;SDS011;2485;49.326;7.214;2022-07-29T01:43:44;5.07;;;4.13;;
4939;SDS011;2485;49.326;7.214;2022-07-29T01:46:17;5.30;;;3.90;;
4939;SDS011;2485;49.326;7.214;2022-07-29T01:48:47;4.87;;;3.93;;
4939;SDS011;2485;49.326;7.214;2022-07-29T01:51:14;4.93;;;4.10;;
4939;SDS011;2485;49.326;7.214;2022-07-29T01:53:48;4.17;;;3.60;;
4939;SDS011;2485;49.326;7.214;2022-07-29T01:56:16;4.73;;;4.33;;
4939;SDS011;2485;49.326;7.214;2022-07-29T01:58:44;5.40;;;3.90;;
4939;SDS011;2485;49.326;7.214;2022-07-29T02:01:11;10.57;;;4.47;;
4939;SDS011;2485;49.326;7.214;2022-07-29T02:03:40;6.37;;;4.30;;
4939;SDS011;2485;49.326;7.214;2022-07-29T02:06:09;6.50;;;4.30;;
4939;SDS011;2485;49.326;7.214;2022-07-29T02:08:36;6.13;;;3.77;;
4939;SDS011;2485;49.326;7.214;2022-07-29T02:11:04;5.10;;;4.10;;
4939;SDS011;2485;49.326;7.214;2022-07-29T02:13:31;4.70;;;4.20;;
4939;SDS011;2485;49.326;7.214;2022-07-29T02:15:58;4.73;;;4.10;;
4939;SDS011;2485;49.326;7.214;2022-07-29T02:18:26;4.43;;;4.03;;
4939;SDS011;2485;49.326;7.214;2022-07-29T02:20:56;5.63;;;4.37;;
4939;SDS011;2485;49.326;7.214;2022-07-29T02:23:24;5.57;;;4.03;;
4939;SDS011;2485;49.326;7.214;2022-07-29T02:25:52;6.83;;;4.70;;
4939;SDS011;2485;49.326;7.214;2022-07-29T02:28:19;7.07;;;4.00;;
4939;SDS011;2485;49.326;7.214;2022-07-29T02:30:46;7.63;;;4.80;;
4939;SDS011;2485;49.326;7.214;2022-07-29T02:33:13;9.00;;;4.23;;
4939;SDS011;2485;49.326;7.214;2022-07-29T02:35:40;6.50;;;4.27;;
4939;SDS011;2485;49.326;7.214;2022-07-29T02:38:08;5.20;;;4.17;;
4939;SDS011;2485;49.326;7.214;2022-07-29T02:40:52;5.67;;;3.90;;
4939;SDS011;2485;49.326;7.214;2022-07-29T02:43:19;4.43;;;4.03;;
4939;SDS011;2485;49.326;7.214;2022-07-29T02:45:46;6.33;;;3.70;;
4939;SDS011;2485;49.326;7.214;2022-07-29T02:48:14;9.73;;;4.33;;
4939;SDS011;2485;49.326;7.214;2022-07-29T02:50:44;6.40;;;4.13;;
4939;SDS011;2485;49.326;7.214;2022-07-29T02:53:16;9.30;;;4.23;;
4939;SDS011;2485;49.326;7.214;2022-07-29T02:55:44;15.43;;;4.40;;
4939;SDS011;2485;49.326;7.214;2022-07-29T02:58:13;5.43;;;4.47;;
4939;SDS011;2485;49.326;7.214;2022-07-29T03:00:41;7.87;;;4.43;;
4939;SDS011;2485;49.326;7.214;2022-07-29T03:03:10;5.97;;;4.97;;
4939;SDS011;2485;49.326;7.214;2022-07-29T03:05:38;6.77;;;4.83;;
4939;SDS011;2485;49.326;7.214;2022-07-29T03:08:05;4.93;;;4.43;;
4939;SDS011;2485;49.326;7.214;2022-07-29T03:10:33;8.87;;;4.57;;
4939;SDS011;2485;49.326;7.214;2022-07-29T03:13:00;5.00;;;4.13;;
4939;SDS011;2485;49.326;7.214;2022-07-29T03:15:27;5.67;;;4.37;;
4939;SDS011;2485;49.326;7.214;2022-07-29T03:17:54;8.20;;;5.07;;
4939;SDS011;2485;49.326;7.214;2022-07-29T03:20:21;7.63;;;4.67;;
4939;SDS011;2485;49.326;7.214;2022-07-29T03:22:47;8.00;;;4.50;;
4939;SDS011;2485;49.326;7.214;2022-07-29T03:25:14;10.47;;;5.00;;
4939;SDS011;2485;49.326;7.214;2022-07-29T03:27:42;8.23;;;4.33;;
4939;SDS011;2485;49.326;7.214;2022-07-29T03:30:09;9.63;;;4.50;;
4939;SDS011;2485;49.326;7.214;2022-07-29T03:32:36;6.83;;;5.00;;
4939;SDS011;2485;49.326;7.214;2022-07-29T03:35:03;7.10;;;4.77;;
4939;SDS011;2485;49.326;7.214;2022-07-29T03:37:30;10.37;;;5.37;;
4939;SDS011;2485;49.326;7.214;2022-07-29T03:39:57;7.40;;;4.77;;
4939;SDS011;2485;49.326;7.214;2022-07-29T03:42:24;7.17;;;4.80;;
4939;SDS011;2485;49.326;7.214;2022-07-29T03:44:52;6.70;;;4.47;;
4939;SDS011;2485;49.326;7.214;2022-07-29T03:47:20;6.70;;;4.40;;
4939;SDS011;2485;49.326;7.214;2022-07-29T03:49:48;8.20;;;4.70;;
4939;SDS011;2485;49.326;7.214;2022-07-29T03:52:16;5.40;;;4.83;;
4939;SDS011;2485;49.326;7.214;2022-07-29T03:54:43;5.50;;;4.47;;
4939;SDS011;2485;49.326;7.214;2022-07-29T03:57:10;6.40;;;4.80;;
4939;SDS011;2485;49.326;7.214;2022-07-29T03:59:37;7.23;;;5.23;;
4939;SDS011;2485;49.326;7.214;2022-07-29T04:02:06;6.63;;;4.90;;
4939;SDS011;2485;49.326;7.214;2022-07-29T04:04:34;5.80;;;4.80;;
4939;SDS011;2485;49.326;7.214;2022-07-29T04:07:01;10.10;;;4.83;;
4939;SDS011;2485;49.326;7.214;2022-07-29T04:09:27;5.40;;;4.37;;
4939;SDS011;2485;49.326;7.214;2022-07-29T04:11:53;7.07;;;5.50;;
4939;SDS011;2485;49.326;7.214;2022-07-29T04:14:20;7.53;;;5.37;;
4939;SDS011;2485;49.326;7.214;2022-07-29T04:16:46;7.50;;;5.00;;
4939;SDS011;2485;49.326;7.214;2022-07-29T04:19:14;6.60;;;5.13;;
4939;SDS011;2485;49.326;7.214;2022-07-29T04:21:40;8.97;;;5.33;;
4939;SDS011;2485;49.326;7.214;2022-07-29T04:24:07;11.93;;;5.13;;
4939;SDS011;2485;49.326;7.214;2022-07-29T04:26:34;7.23;;;5.40;;
4939;SDS011;2485;49.326;7.214;2022-07-29T04:29:00;7.07;;;5.10;;
4939;SDS011;2485;49.326;7.214;2022-07-29T04:31:27;6.73;;;4.90;;
4939;SDS011;2485;49.326;7.214;2022-07-29T04:33:53;9.97;;;4.67;;
4939;SDS011;2485;49.326;7.214;2022-07-29T04:36:21;8.43;;;5.30;;
4939;SDS011;2485;49.326;7.214;2022-07-29T04:38:47;7.43;;;5.10;;
4939;SDS011;2485;49.326;7.214;2022-07-29T04:41:14;7.27;;;5.00;;
4939;SDS011;2485;49.326;7.214;2022-07-29T04:43:40;6.23;;;4.60;;
4939;SDS011;2485;49.326;7.214;2022-07-29T04:46:06;9.90;;;5.80;;
4939;SDS011;2485;49.326;7.214;2022-07-29T04:48:33;8.17;;;4.77;;
4939;SDS011;2485;49.326;7.214;2022-07-29T04:50:59;7.70;;;5.03;;
4939;SDS011;2485;49.326;7.214;2022-07-29T04:53:27;10.00;;;4.37;;
4939;SDS011;2485;49.326;7.214;2022-07-29T04:55:53;13.83;;;4.90;;
4939;SDS011;2485;49.326;7.214;2022-07-29T04:58:20;6.50;;;3.97;;
4939;SDS011;2485;49.326;7.214;2022-07-29T05:00:48;9.30;;;4.63;;
4939;SDS011;2485;49.326;7.214;2022-07-29T05:03:14;13.63;;;4.43;;
4939;SDS011;2485;49.326;7.214;2022-07-29T05:05:40;8.30;;;4.37;;
4939;SDS011;2485;49.326;7.214;2022-07-29T05:08:07;6.90;;;4.40;;
4939;SDS011;2485;49.326;7.214;2022-07-29T05:10:35;9.97;;;4.80;;
4939;SDS011;2485;49.326;7.214;2022-07-29T05:13:03;7.70;;;4.47;;
4939;SDS011;2485;49.326;7.214;2022-07-29T05:15:29;7.27;;;3.93;;
4939;SDS011;2485;49.326;7.214;2022-07-29T05:17:56;7.33;;;4.17;;
4939;SDS011;2485;49.326;7.214;2022-07-29T05:20:22;5.43;;;3.90;;
4939;SDS011;2485;49.326;7.214;2022-07-29T05:22:51;6.90;;;4.47;;
4939;SDS011;2485;49.326;7.214;2022-07-29T05:25:17;8.07;;;3.97;;
4939;SDS011;2485;49.326;7.214;2022-07-29T05:27:45;8.33;;;3.90;;
4939;SDS011;2485;49.326;7.214;2022-07-29T05:30:12;6.40;;;3.80;;
4939;SDS011;2485;49.326;7.214;2022-07-29T05:32:38;6.13;;;3.73;;
4939;SDS011;2485;49.326;7.214;2022-07-29T05:35:05;10.10;;;4.00;;
4939;SDS011;2485;49.326;7.214;2022-07-29T05:37:31;11.63;;;3.77;;
4939;SDS011;2485;49.326;7.214;2022-07-29T05:39:58;8.23;;;4.10;;
4939;SDS011;2485;49.326;7.214;2022-07-29T05:42:24;7.37;;;4.73;;
4939;SDS011;2485;49.326;7.214;2022-07-29T05:44:53;7.53;;;4.30;;
4939;SDS011;2485;49.326;7.214;2022-07-29T05:47:20;6.40;;;4.00;;
4939;SDS011;2485;49.326;7.214;2022-07-29T05:49:46;7.20;;;4.03;;
4939;SDS011;2485;49.326;7.214;2022-07-29T05:52:13;7.97;;;4.20;;
4939;SDS011;2485;49.326;7.214;2022-07-29T05:54:39;8.10;;;3.93;;
4939;SDS011;2485;49.326;7.214;2022-07-29T05:57:06;7.50;;;4.07;;
4939;SDS011;2485;49.326;7.214;2022-07-29T05:59:36;4.37;;;3.30;;
4939;SDS011;2485;49.326;7.214;2022-07-29T06:02:03;5.70;;;3.97;;
4939;SDS011;2485;49.326;7.214;2022-07-29T06:04:30;6.10;;;3.67;;
4939;SDS011;2485;49.326;7.214;2022-07-29T06:06:56;5.70;;;3.67;;
4939;SDS011;2485;49.326;7.214;2022-07-29T06:09:23;5.53;;;3.03;;
4939;SDS011;2485;49.326;7.214;2022-07-29T06:11:49;4.57;;;3.33;;
4939;SDS011;2485;49.326;7.214;2022-07-29T06:14:15;8.10;;;3.23;;
4939;SDS011;2485;49.326;7.214;2022-07-29T06:16:42;6.93;;;3.90;;
4939;SDS011;2485;49.326;7.214;2022-07-29T06:19:10;6.23;;;3.47;;
4939;SDS011;2485;49.326;7.214;2022-07-29T06:21:36;4.70;;;3.20;;
4939;SDS011;2485;49.326;7.214;2022-07-29T06:24:05;5.70;;;3.00;;
4939;SDS011;2485;49.326;7.214;2022-07-29T06:26:46;6.43;;;3.60;;
4939;SDS011;2485;49.326;7.214;2022-07-29T06:29:12;7.70;;;3.23;;
4939;SDS011;2485;49.326;7.214;2022-07-29T06:31:38;6.17;;;2.80;;
4939;SDS011;2485;49.326;7.214;2022-07-29T06:34:15;7.90;;;3.20;;
4939;SDS011;2485;49.326;7.214;2022-07-29T06:36:42;11.67;;;3.60;;
4939;SDS011;2485;49.326;7.214;2022-07-29T06:39:08;4.50;;;3.07;;
4939;SDS011;2485;49.326;7.214;2022-07-29T06:41:35;7.10;;;3.57;;
4939;SDS011;2485;49.326;7.214;2022-07-29T06:44:02;6.67;;;3.10;;
4939;SDS011;2485;49.326;7.214;2022-07-29T06:46:29;4.90;;;3.20;;
4939;SDS011;2485;49.326;7.214;2022-07-29T06:48:55;7.70;;;3.00;;
4939;SDS011;2485;49.326;7.214;2022-07-29T06:51:23;8.23;;;3.80;;
4939;SDS011;2485;49.326;7.214;2022-07-29T06:53:50;6.43;;;3.17;;
4939;SDS011;2485;49.326;7.214;2022-07-29T06:56:17;5.67;;;3.03;;
4939;SDS011;2485;49.326;7.214;2022-07-29T06:58:43;6.60;;;3.10;;
4939;SDS011;2485;49.326;7.214;2022-07-29T07:01:09;7.60;;;3.33;;
4939;SDS011;2485;49.326;7.214;2022-07-29T07:03:36;7.57;;;2.90;;
4939;SDS011;2485;49.326;7.214;2022-07-29T07:06:02;5.30;;;3.10;;
4939;SDS011;2485;49.326;7.214;2022-07-29T07:08:30;5.90;;;3.40;;
4939;SDS011;2485;49.326;7.214;2022-07-29T07:10:56;7.27;;;3.10;;
4939;SDS011;2485;49.326;7.214;2022-07-29T07:13:23;6.00;;;3.07;;
4939;SDS011;2485;49.326;7.214;2022-07-29T07:15:49;10.00;;;3.63;;
4939;SDS011;2485;49.326;7.214;2022-07-29T07:18:16;10.73;;;3.30;;
4939;SDS011;2485;49.326;7.214;2022-07-29T07:20:43;5.07;;;2.70;;
4939;SDS011;2485;49.326;7.214;2022-07-29T07:23:10;4.40;;;2.80;;
4939;SDS011;2485;49.326;7.214;2022-07-29T07:25:39;4.97;;;2.77;;
4939;SDS011;2485;49.326;7.214;2022-07-29T07:28:05;5.43;;;3.00;;
4939;SDS011;2485;49.326;7.214;2022-07-29T07:30:31;5.77;;;2.97;;
4939;SDS011;2485;49.326;7.214;2022-07-29T07:32:59;6.63;;;2.73;;
4939;SDS011;2485;49.326;7.214;2022-07-29T07:35:25;9.83;;;3.20;;
4939;SDS011;2485;49.326;7.214;2022-07-29T07:37:52;6.90;;;2.93;;
4939;SDS011;2485;49.326;7.214;2022-07-29T07:40:19;6.40;;;3.00;;
4939;SDS011;2485;49.326;7.214;2022-07-29T07:42:46;5.63;;;2.60;;
4939;SDS011;2485;49.326;7.214;2022-07-29T07:45:13;8.20;;;3.50;;
4939;SDS011;2485;49.326;7.214;2022-07-29T07:47:39;3.70;;;2.50;;
4939;SDS011;2485;49.326;7.214;2022-07-29T07:50:06;5.07;;;2.73;;
4939;SDS011;2485;49.326;7.214;2022-07-29T07:52:33;6.53;;;3.03;;
4939;SDS011;2485;49.326;7.214;2022-07-29T07:54:59;4.93;;;3.00;;
4939;SDS011;2485;49.326;7.214;2022-07-29T07:57:26;6.17;;;2.97;;
4939;SDS011;2485;49.326;7.214;2022-07-29T07:59:54;7.77;;;3.10;;
4939;SDS011;2485;49.326;7.214;2022-07-29T08:02:20;5.97;;;2.47;;
4939;SDS011;2485;49.326;7.214;2022-07-29T08:04:46;8.00;;;3.30;;
4939;SDS011;2485;49.326;7.214;2022-07-29T08:07:13;3.70;;;2.63;;
4939;SDS011;2485;49.326;7.214;2022-07-29T08:09:39;4.57;;;2.90;;
4939;SDS011;2485;49.326;7.214;2022-07-29T08:12:06;3.07;;;2.70;;
4939;SDS011;2485;49.326;7.214;2022-07-29T08:14:33;3.00;;;2.20;;
4939;SDS011;2485;49.326;7.214;2022-07-29T08:17:00;5.50;;;3.13;;
4939;SDS011;2485;49.326;7.214;2022-07-29T08:19:27;6.33;;;2.97;;
4939;SDS011;2485;49.326;7.214;2022-07-29T08:21:53;5.40;;;2.80;;
4939;SDS011;2485;49.326;7.214;2022-07-29T08:24:20;4.53;;;2.80;;
4939;SDS011;2485;49.326;7.214;2022-07-29T08:27:04;6.63;;;3.13;;
4939;SDS011;2485;49.326;7.214;2022-07-29T08:29:30;2.70;;;2.50;;
4939;SDS011;2485;49.326;7.214;2022-07-29T08:31:57;15.43;;;3.27;;
4939;SDS011;2485;49.326;7.214;2022-07-29T08:34:24;5.53;;;2.93;;
4939;SDS011;2485;49.326;7.214;2022-07-29T08:36:51;6.80;;;3.20;;
4939;SDS011;2485;49.326;7.214;2022-07-29T08:39:17;5.83;;;2.83;;
4939;SDS011;2485;49.326;7.214;2022-07-29T08:41:44;4.47;;;3.07;;
4939;SDS011;2485;49.326;7.214;2022-07-29T08:44:10;9.07;;;4.17;;
4939;SDS011;2485;49.326;7.214;2022-07-29T08:46:37;4.13;;;3.00;;
4939;SDS011;2485;49.326;7.214;2022-07-29T08:49:03;5.50;;;2.80;;
4939;SDS011;2485;49.326;7.214;2022-07-29T08:51:31;5.60;;;3.10;;
4939;SDS011;2485;49.326;7.214;2022-07-29T08:54:00;4.13;;;2.60;;
4939;SDS011;2485;49.326;7.214;2022-07-29T08:56:27;5.23;;;2.90;;
4939;SDS011;2485;49.326;7.214;2022-07-29T08:58:53;5.53;;;2.87;;
4939;SDS011;2485;49.326;7.214;2022-07-29T09:01:21;5.77;;;3.10;;
4939;SDS011;2485;49.326;7.214;2022-07-29T09:03:48;8.73;;;3.13;;
4939;SDS011;2485;49.326;7.214;2022-07-29T09:06:15;7.03;;;3.03;;
4939;SDS011;2485;49.326;7.214;2022-07-29T09:08:44;12.10;;;2.93;;
4939;SDS011;2485;49.326;7.214;2022-07-29T09:11:10;4.80;;;2.83;;
4939;SDS011;2485;49.326;7.214;2022-07-29T09:13:37;5.33;;;3.23;;
4939;SDS011;2485;49.326;7.214;2022-07-29T09:16:04;6.00;;;2.90;;
4939;SDS011;2485;49.326;7.214;2022-07-29T09:18:33;6.70;;;3.30;;
4939;SDS011;2485;49.326;7.214;2022-07-29T09:21:00;4.00;;;2.80;;
4939;SDS011;2485;49.326;7.214;2022-07-29T09:26:39;6.67;;;2.93;;
4939;SDS011;2485;49.326;7.214;2022-07-29T09:29:09;7.47;;;2.87;;
4939;SDS011;2485;49.326;7.214;2022-07-29T09:31:36;7.80;;;3.10;;
4939;SDS011;2485;49.326;7.214;2022-07-29T09:34:03;5.47;;;2.83;;
4939;SDS011;2485;49.326;7.214;2022-07-29T09:36:29;9.37;;;3.10;;
4939;SDS011;2485;49.326;7.214;2022-07-29T09:39:00;3.47;;;2.87;;
4939;SDS011;2485;49.326;7.214;2022-07-29T09:41:27;7.53;;;2.97;;
4939;SDS011;2485;49.326;7.214;2022-07-29T09:43:55;3.70;;;2.50;;
4939;SDS011;2485;49.326;7.214;2022-07-29T09:46:22;6.03;;;2.70;;
4939;SDS011;2485;49.326;7.214;2022-07-29T09:49:08;14.27;;;3.20;;
4939;SDS011;2485;49.326;7.214;2022-07-29T09:51:34;8.23;;;2.27;;
4939;SDS011;2485;49.326;7.214;2022-07-29T09:54:01;7.10;;;2.40;;
4939;SDS011;2485;49.326;7.214;2022-07-29T09:56:39;6.93;;;2.70;;
4939;SDS011;2485;49.326;7.214;2022-07-29T09:59:07;5.00;;;2.00;;
4939;SDS011;2485;49.326;7.214;2022-07-29T10:01:34;3.40;;;2.40;;
4939;SDS011;2485;49.326;7.214;2022-07-29T10:04:00;10.00;;;3.33;;
4939;SDS011;2485;49.326;7.214;2022-07-29T10:06:27;10.33;;;2.63;;
4939;SDS011;2485;49.326;7.214;2022-07-29T10:08:53;5.27;;;2.80;;
4939;SDS011;2485;49.326;7.214;2022-07-29T10:11:20;6.10;;;2.90;;
4939;SDS011;2485;49.326;7.214;2022-07-29T10:13:47;5.53;;;2.60;;
4939;SDS011;2485;49.326;7.214;2022-07-29T10:16:16;7.43;;;2.90;;
4939;SDS011;2485;49.326;7.214;2022-07-29T10:18:42;6.90;;;3.20;;
4939;SDS011;2485;49.326;7.214;2022-07-29T10:21:09;4.93;;;2.83;;
4939;SDS011;2485;49.326;7.214;2022-07-29T10:23:36;7.33;;;2.70;;
4939;SDS011;2485;49.326;7.214;2022-07-29T10:26:03;6.47;;;2.97;;
4939;SDS011;2485;49.326;7.214;2022-07-29T10:28:29;6.10;;;3.47;;
4939;SDS011;2485;49.326;7.214;2022-07-29T10:30:58;10.10;;;3.77;;
4939;SDS011;2485;49.326;7.214;2022-07-29T10:33:34;4.80;;;2.93;;
4939;SDS011;2485;49.326;7.214;2022-07-29T10:36:07;11.53;;;3.00;;
4939;SDS011;2485;49.326;7.214;2022-07-29T10:38:44;3.90;;;3.10;;
4939;SDS011;2485;49.326;7.214;2022-07-29T10:41:25;7.40;;;3.07;;
4939;SDS011;2485;49.326;7.214;2022-07-29T10:43:59;10.00;;;2.97;;
4939;SDS011;2485;49.326;7.214;2022-07-29T10:46:27;4.20;;;2.80;;
4939;SDS011;2485;49.326;7.214;2022-07-29T10:49:07;4.50;;;2.60;;
4939;SDS011;2485;49.326;7.214;2022-07-29T10:54:44;5.27;;;3.00;;
4939;SDS011;2485;49.326;7.214;2022-07-29T10:57:12;3.80;;;3.00;;
4939;SDS011;2485;49.326;7.214;2022-07-29T10:59:38;5.10;;;2.40;;
4939;SDS011;2485;49.326;7.214;2022-07-29T11:02:14;3.40;;;2.00;;
4939;SDS011;2485;49.326;7.214;2022-07-29T11:05:03;4.57;;;2.80;;
4939;SDS011;2485;49.326;7.214;2022-07-29T11:07:30;3.10;;;2.10;;
4939;SDS011;2485;49.326;7.214;2022-07-29T11:12:46;2.00;;;1.50;;
4939;SDS011;2485;49.326;7.214;2022-07-29T11:15:13;2.73;;;1.90;;
4939;SDS011;2485;49.326;7.214;2022-07-29T11:23:18;2.80;;;1.93;;
4939;SDS011;2485;49.326;7.214;2022-07-29T11:25:45;4.37;;;1.93;;
4939;SDS011;2485;49.326;7.214;2022-07-29T11:28:13;3.10;;;2.03;;
4939;SDS011;2485;49.326;7.214;2022-07-29T11:30:48;3.60;;;2.20;;
4939;SDS011;2485;49.326;7.214;2022-07-29T11:36:06;6.67;;;2.00;;
4939;SDS011;2485;49.326;7.214;2022-07-29T11:38:34;5.53;;;2.50;;
4939;SDS011;2485;49.326;7.214;2022-07-29T11:41:20;4.07;;;2.73;;
4939;SDS011;2485;49.326;7.214;2022-07-29T11:43:47;4.23;;;2.50;;
4939;SDS011;2485;49.326;7.214;2022-07-29T11:46:14;6.07;;;2.13;;
4939;SDS011;2485;49.326;7.214;2022-07-29T11:48:41;2.90;;;2.00;;
4939;SDS011;2485;49.326;7.214;2022-07-29T11:51:08;7.00;;;2.50;;
4939;SDS011;2485;49.326;7.214;2022-07-29T11:53:36;5.77;;;2.40;;
4939;SDS011;2485;49.326;7.214;2022-07-29T11:56:03;5.50;;;2.57;;
4939;SDS011;2485;49.326;7.214;2022-07-29T11:58:30;3.23;;;2.50;;
4939;SDS011;2485;49.326;7.214;2022-07-29T12:00:56;3.80;;;2.20;;
4939;SDS011;2485;49.326;7.214;2022-07-29T12:03:24;3.20;;;2.10;;
4939;SDS011;2485;49.326;7.214;2022-07-29T12:05:51;8.43;;;2.37;;
4939;SDS011;2485;49.326;7.214;2022-07-29T12:08:18;2.90;;;2.40;;
4939;SDS011;2485;49.326;7.214;2022-07-29T12:10:48;4.67;;;2.00;;
4939;SDS011;2485;49.326;7.214;2022-07-29T12:13:17;5.23;;;2.50;;
4939;SDS011;2485;49.326;7.214;2022-07-29T12:15:51;6.60;;;2.57;;
4939;SDS011;2485;49.326;7.214;2022-07-29T12:18:18;3.93;;;2.10;;
4939;SDS011;2485;49.326;7.214;2022-07-29T12:20:45;2.93;;;2.10;;
4939;SDS011;2485;49.326;7.214;2022-07-29T12:23:12;3.53;;;2.50;;
4939;SDS011;2485;49.326;7.214;2022-07-29T12:25:39;4.80;;;1.90;;
4939;SDS011;2485;49.326;7.214;2022-07-29T12:28:07;4.50;;;2.03;;
4939;SDS011;2485;49.326;7.214;2022-07-29T12:30:39;3.53;;;2.13;;
4939;SDS011;2485;49.326;7.214;2022-07-29T12:33:12;7.10;;;2.27;;
4939;SDS011;2485;49.326;7.214;2022-07-29T12:35:39;2.07;;;1.87;;
4939;SDS011;2485;49.326;7.214;2022-07-29T12:38:05;5.20;;;1.80;;
4939;SDS011;2485;49.326;7.214;2022-07-29T12:40:32;6.80;;;1.77;;
4939;SDS011;2485;49.326;7.214;2022-07-29T12:43:07;2.47;;;1.73;;
4939;SDS011;2485;49.326;7.214;2022-07-29T12:45:34;3.10;;;2.07;;
4939;SDS011;2485;49.326;7.214;2022-07-29T12:48:00;4.90;;;1.90;;
4939;SDS011;2485;49.326;7.214;2022-07-29T12:50:27;5.93;;;2.70;;
4939;SDS011;2485;49.326;7.214;2022-07-29T12:52:54;3.97;;;2.00;;
4939;SDS011;2485;49.326;7.214;2022-07-29T12:55:39;5.10;;;1.90;;
4939;SDS011;2485;49.326;7.214;2022-07-29T12:58:07;5.10;;;1.80;;
4939;SDS011;2485;49.326;7.214;2022-07-29T13:00:34;4.43;;;2.10;;
4939;SDS011;2485;49.326;7.214;2022-07-29T13:03:00;1.77;;;1.67;;
4939;SDS011;2485;49.326;7.214;2022-07-29T13:05:38;6.20;;;2.63;;
4939;SDS011;2485;49.326;7.214;2022-07-29T13:08:09;3.60;;;2.00;;
4939;SDS011;2485;49.326;7.214;2022-07-29T13:10:36;5.20;;;1.83;;
4939;SDS011;2485;49.326;7.214;2022-07-29T13:13:05;5.53;;;2.30;;
4939;SDS011;2485;49.326;7.214;2022-07-29T13:15:34;4.70;;;2.20;;
4939;SDS011;2485;49.326;7.214;2022-07-29T13:18:01;4.77;;;2.00;;
4939;SDS011;2485;49.326;7.214;2022-07-29T13:20:28;3.80;;;1.93;;
4939;SDS011;2485;49.326;7.214;2022-07-29T13:22:55;10.60;;;2.17;;
4939;SDS011;2485;49.326;7.214;2022-07-29T13:25:25;4.50;;;2.20;;
4939;SDS011;2485;49.326;7.214;2022-07-29T13:27:52;4.03;;;2.10;;
4939;SDS011;2485;49.326;7.214;2022-07-29T13:30:19;3.40;;;1.77;;
4939;SDS011;2485;49.326;7.214;2022-07-29T13:32:47;4.60;;;2.20;;
4939;SDS011;2485;49.326;7.214;2022-07-29T13:35:14;3.87;;;2.00;;
4939;SDS011;2485;49.326;7.214;2022-07-29T13:37:40;2.20;;;2.00;;
4939;SDS011;2485;49.326;7.214;2022-07-29T13:40:07;5.33;;;1.97;;
4939;SDS011;2485;49.326;7.214;2022-07-29T13:42:34;3.87;;;2.50;;
4939;SDS011;2485;49.326;7.214;2022-07-29T13:45:00;4.80;;;3.47;;
4939;SDS011;2485;49.326;7.214;2022-07-29T13:47:33;4.13;;;2.60;;
4939;SDS011;2485;49.326;7.214;2022-07-29T13:50:01;3.87;;;2.10;;
4939;SDS011;2485;49.326;7.214;2022-07-29T13:52:27;3.37;;;2.53;;
4939;SDS011;2485;49.326;7.214;2022-07-29T13:54:54;3.90;;;2.10;;
4939;SDS011;2485;49.326;7.214;2022-07-29T13:57:20;4.80;;;2.33;;
4939;SDS011;2485;49.326;7.214;2022-07-29T13:59:46;3.90;;;1.90;;
4939;SDS011;2485;49.326;7.214;2022-07-29T14:02:13;6.57;;;1.97;;
4939;SDS011;2485;49.326;7.214;2022-07-29T14:04:39;3.80;;;2.50;;
4939;SDS011;2485;49.326;7.214;2022-07-29T14:07:07;4.20;;;2.20;;
4939;SDS011;2485;49.326;7.214;2022-07-29T14:09:33;3.00;;;2.10;;
4939;SDS011;2485;49.326;7.214;2022-07-29T14:12:00;5.10;;;2.57;;
4939;SDS011;2485;49.326;7.214;2022-07-29T14:14:27;3.03;;;2.03;;
4939;SDS011;2485;49.326;7.214;2022-07-29T14:16:53;2.20;;;1.90;;
4939;SDS011;2485;49.326;7.214;2022-07-29T14:19:20;3.47;;;2.20;;
4939;SDS011;2485;49.326;7.214;2022-07-29T14:21:46;2.00;;;1.90;;
4939;SDS011;2485;49.326;7.214;2022-07-29T14:24:14;7.10;;;2.60;;
4939;SDS011;2485;49.326;7.214;2022-07-29T14:26:40;2.60;;;2.17;;
4939;SDS011;2485;49.326;7.214;2022-07-29T14:29:07;3.10;;;1.90;;
4939;SDS011;2485;49.326;7.214;2022-07-29T14:31:33;3.40;;;2.50;;
4939;SDS011;2485;49.326;7.214;2022-07-29T14:33:59;3.50;;;2.10;;
4939;SDS011;2485;49.326;7.214;2022-07-29T14:36:26;2.23;;;2.13;;
4939;SDS011;2485;49.326;7.214;2022-07-29T14:38:53;5.23;;;2.07;;
4939;SDS011;2485;49.326;7.214;2022-07-29T14:41:21;5.67;;;2.20;;
4939;SDS011;2485;49.326;7.214;2022-07-29T14:43:47;3.60;;;2.30;;
4939;SDS011;2485;49.326;7.214;2022-07-29T14:46:13;5.57;;;2.00;;
4939;SDS011;2485;49.326;7.214;2022-07-29T14:48:40;4.27;;;2.10;;
4939;SDS011;2485;49.326;7.214;2022-07-29T14:51:06;5.50;;;2.40;;
4939;SDS011;2485;49.326;7.214;2022-07-29T14:53:32;3.13;;;2.23;;
4939;SDS011;2485;49.326;7.214;2022-07-29T14:55:59;3.80;;;2.00;;
4939;SDS011;2485;49.326;7.214;2022-07-29T14:58:27;5.70;;;2.20;;
4939;SDS011;2485;49.326;7.214;2022-07-29T15:00:53;3.53;;;2.17;;
4939;SDS011;2485;49.326;7.214;2022-07-29T15:03:21;3.53;;;2.17;;
4939;SDS011;2485;49.326;7.214;2022-07-29T15:05:48;3.00;;;2.13;;
4939;SDS011;2485;49.326;7.214;2022-07-29T15:08:14;11.23;;;2.60;;
4939;SDS011;2485;49.326;7.214;2022-07-29T15:10:41;5.00;;;2.40;;
4939;SDS011;2485;49.326;7.214;2022-07-29T15:13:07;4.83;;;2.33;;
4939;SDS011;2485;49.326;7.214;2022-07-29T15:15:35;6.17;;;2.50;;
4939;SDS011;2485;49.326;7.214;2022-07-29T15:18:01;3.27;;;2.90;;
4939;SDS011;2485;49.326;7.214;2022-07-29T15:20:28;6.07;;;2.83;;
4939;SDS011;2485;49.326;7.214;2022-07-29T15:22:54;2.57;;;2.33;;
4939;SDS011;2485;49.326;7.214;2022-07-29T15:25:21;3.10;;;2.27;;
4939;SDS011;2485;49.326;7.214;2022-07-29T15:27:47;6.33;;;2.13;;
4939;SDS011;2485;49.326;7.214;2022-07-29T15:30:14;4.50;;;2.57;;
4939;SDS011;2485;49.326;7.214;2022-07-29T15:32:43;3.00;;;2.67;;
4939;SDS011;2485;49.326;7.214;2022-07-29T15:35:09;2.77;;;2.37;;
4939;SDS011;2485;49.326;7.214;2022-07-29T15:37:36;3.90;;;2.47;;